createdAt,value
2022-12-06T00:00:10.239Z,9.95
2022-12-06T00:03:54.587Z,11.63
2022-12-06T00:07:36.506Z,10.35
2022-12-06T00:11:22.329Z,12.20
2022-12-06T00:15:04.523Z,11.65
2022-12-06T00:18:46.846Z,10.68
2022-12-06T00:22:28.670Z,9.27
2022-12-06T00:26:11.119Z,8.85
2022-12-06T00:29:52.945Z,13.15
2022-12-06T00:33:36.210Z,11.13
2022-12-06T00:37:18.070Z,11.43
2022-12-06T00:41:04.969Z,10.35
2022-12-06T00:44:46.818Z,8.93
2022-12-06T00:48:29.059Z,12.65
2022-12-06T00:52:10.985Z,9.20
2022-12-06T00:55:53.028Z,5.43
2022-12-06T00:59:34.901Z,7.35
2022-12-06T01:03:18.147Z,8.98
2022-12-06T01:07:00.654Z,7.20
2022-12-06T01:10:43.083Z,8.02
2022-12-06T01:14:25.585Z,11.25
2022-12-06T01:18:07.314Z,9.50
2022-12-06T01:21:49.481Z,8.60
2022-12-06T01:25:35.731Z,9.77
2022-12-06T01:29:19.023Z,8.77
2022-12-06T01:33:00.810Z,8.68
2022-12-06T01:36:43.073Z,9.10
2022-12-06T01:40:24.847Z,10.13
2022-12-06T01:44:06.888Z,8.93
2022-12-06T01:47:48.837Z,12.07
2022-12-06T01:51:31.210Z,7.40
2022-12-06T01:55:14.067Z,5.55
2022-12-06T01:58:57.791Z,9.98
2022-12-06T02:02:39.696Z,9.38
2022-12-06T02:06:21.976Z,10.68
2022-12-06T02:10:04.209Z,7.32
2022-12-06T02:13:46.236Z,8.02
2022-12-06T02:17:40.184Z,6.97
2022-12-06T02:21:34.205Z,16.88
2022-12-06T02:25:43.058Z,11.07
2022-12-06T02:29:50.158Z,10.25
2022-12-06T02:33:40.133Z,8.55
2022-12-06T02:37:29.484Z,9.73
2022-12-06T02:41:25.608Z,9.35
2022-12-06T02:45:16.585Z,7.05
2022-12-06T02:49:02.530Z,9.07
2022-12-06T02:52:48.523Z,6.65
2022-12-06T02:56:33.008Z,10.52
2022-12-06T03:00:31.673Z,9.88
2022-12-06T03:04:34.545Z,9.48
2022-12-06T03:08:28.764Z,7.88
2022-12-06T03:12:40.329Z,9.77
2022-12-06T03:16:30.163Z,13.13
2022-12-06T03:20:19.045Z,7.82
2022-12-06T03:24:01.573Z,7.72
2022-12-06T03:27:45.013Z,8.45
2022-12-06T03:31:30.554Z,11.50
2022-12-06T03:35:17.597Z,7.63
2022-12-06T03:39:03.844Z,10.43
2022-12-06T03:42:47.292Z,10.40
2022-12-06T03:46:35.242Z,8.68
2022-12-06T03:50:22.447Z,9.55
2022-12-06T03:54:07.165Z,7.88
2022-12-06T03:57:48.930Z,10.43
2022-12-06T04:01:30.761Z,10.00
2022-12-06T04:05:12.704Z,8.75
2022-12-06T04:09:14.509Z,8.95
2022-12-06T04:13:02.015Z,9.20
2022-12-06T04:17:02.313Z,10.80
2022-12-06T04:21:11.558Z,6.15
2022-12-06T04:24:53.307Z,11.35
2022-12-06T04:28:53.693Z,10.20
2022-12-06T04:32:54.194Z,10.30
2022-12-06T04:36:55.921Z,10.48
2022-12-06T04:40:37.719Z,9.07
2022-12-06T04:44:19.461Z,10.32
2022-12-06T04:48:01.225Z,9.07
2022-12-06T04:51:43.026Z,9.63
2022-12-06T04:55:24.826Z,11.27
2022-12-06T04:59:06.594Z,11.18
2022-12-06T05:02:48.317Z,12.50
2022-12-06T05:06:30.051Z,8.63
2022-12-06T05:10:12.022Z,8.95
2022-12-06T05:13:53.852Z,8.65
2022-12-06T05:17:35.604Z,11.70
2022-12-06T05:21:19.807Z,10.05
2022-12-06T05:25:01.591Z,14.60
2022-12-06T05:28:44.185Z,8.38
2022-12-06T05:32:25.932Z,9.85
2022-12-06T05:36:13.204Z,9.48
2022-12-06T05:39:54.995Z,8.85
2022-12-06T05:43:36.985Z,7.20
2022-12-06T05:47:18.721Z,10.02
2022-12-06T05:51:00.875Z,11.10
2022-12-06T05:54:42.621Z,11.48
2022-12-06T05:58:24.374Z,8.13
2022-12-06T06:02:06.533Z,9.68
2022-12-06T06:05:50.245Z,8.57
2022-12-06T06:09:31.959Z,11.98
2022-12-06T06:13:13.716Z,9.30
2022-12-06T06:16:55.572Z,9.95
2022-12-06T06:20:37.333Z,8.98
2022-12-06T06:24:19.061Z,8.13
2022-12-06T06:28:00.776Z,6.32
2022-12-06T06:31:42.594Z,7.93
2022-12-06T06:35:24.992Z,10.60
2022-12-06T06:39:06.736Z,10.57
2022-12-06T06:42:48.413Z,9.23
2022-12-06T06:46:30.200Z,7.07
2022-12-06T06:50:12.312Z,8.98
2022-12-06T06:53:54.054Z,11.50
2022-12-06T06:57:36.192Z,6.28
2022-12-06T07:01:20.563Z,5.68
2022-12-06T07:05:02.394Z,8.43
2022-12-06T07:08:44.409Z,13.10
2022-12-06T07:12:26.137Z,7.60
2022-12-06T07:16:12.821Z,7.57
2022-12-06T07:19:54.624Z,8.15
2022-12-06T07:23:36.933Z,8.05
2022-12-06T07:27:18.675Z,8.35
2022-12-06T07:31:08.693Z,7.20
2022-12-06T07:34:50.500Z,9.02
2022-12-06T07:38:32.290Z,13.13
2022-12-06T07:42:32.623Z,5.85
2022-12-06T07:46:14.468Z,8.10
2022-12-06T07:49:56.253Z,8.57
2022-12-06T07:53:38.008Z,9.13
2022-12-06T07:57:21.675Z,7.10
2022-12-06T08:01:04.651Z,5.50
2022-12-06T08:04:46.955Z,4.78
2022-12-06T08:08:29.261Z,6.57
2022-12-06T08:12:11.446Z,7.45
2022-12-06T08:15:53.237Z,8.30
2022-12-06T08:19:35.002Z,5.43
2022-12-06T08:23:16.760Z,9.93
2022-12-06T08:27:00.192Z,4.05
2022-12-06T08:30:42.097Z,6.28
2022-12-06T08:34:24.098Z,9.60
2022-12-06T08:38:05.867Z,5.95
2022-12-06T08:41:58.220Z,7.57
2022-12-06T08:45:39.982Z,5.15
2022-12-06T08:49:23.207Z,5.00
2022-12-06T08:53:04.982Z,5.65
2022-12-06T08:56:47.121Z,9.93
2022-12-06T09:00:28.874Z,11.93
2022-12-06T09:04:11.656Z,5.03
2022-12-06T09:07:53.502Z,5.93
2022-12-06T09:11:35.425Z,8.70
2022-12-06T09:15:17.219Z,6.88
2022-12-06T09:18:59.077Z,7.00
2022-12-06T09:22:40.900Z,8.60
2022-12-06T09:26:23.009Z,11.82
2022-12-06T09:30:05.712Z,8.63
2022-12-06T09:33:47.881Z,5.75
2022-12-06T09:37:29.756Z,11.80
2022-12-06T09:41:33.471Z,5.55
2022-12-06T09:45:29.069Z,5.30
2022-12-06T09:49:22.170Z,5.72
2022-12-06T09:53:31.353Z,5.22
2022-12-06T09:57:13.074Z,6.30
2022-12-06T10:01:27.905Z,7.18
2022-12-06T10:05:36.738Z,7.30
2022-12-06T10:09:26.568Z,7.47
2022-12-06T10:13:08.303Z,5.50
2022-12-06T10:17:11.909Z,7.88
2022-12-06T10:21:05.850Z,6.32
2022-12-06T10:25:16.046Z,5.32
2022-12-06T10:29:18.490Z,8.25
2022-12-06T10:33:38.946Z,8.85
2022-12-06T10:37:45.166Z,5.25
2022-12-06T10:41:33.985Z,5.57
2022-12-06T10:45:48.466Z,8.40
2022-12-06T10:49:52.512Z,7.22
2022-12-06T10:53:47.008Z,5.70
2022-12-06T10:57:54.921Z,9.32
2022-12-06T11:01:43.567Z,5.75
2022-12-06T11:05:36.128Z,7.82
2022-12-06T11:09:40.053Z,4.13
2022-12-06T11:13:28.806Z,5.45
2022-12-06T11:17:24.231Z,5.97
2022-12-06T11:21:24.404Z,5.82
2022-12-06T11:25:19.325Z,5.20
2022-12-06T11:29:06.788Z,7.70
2022-12-06T11:32:51.250Z,4.28
2022-12-06T11:36:33.233Z,5.38
2022-12-06T11:40:31.363Z,5.43
2022-12-06T11:44:21.741Z,4.65
2022-12-06T11:48:22.915Z,4.38
2022-12-06T11:52:30.814Z,6.13
2022-12-06T11:56:25.091Z,3.60
2022-12-06T12:00:23.750Z,5.68
2022-12-06T12:04:27.119Z,5.13
2022-12-06T12:08:19.987Z,5.45
2022-12-06T12:12:12.370Z,4.97
2022-12-06T12:15:54.302Z,4.97
2022-12-06T12:19:50.639Z,5.80
2022-12-06T12:23:42.360Z,6.33
2022-12-06T12:27:43.121Z,6.47
2022-12-06T12:31:26.612Z,5.28
2022-12-06T12:35:42.141Z,6.28
2022-12-06T12:39:38.619Z,4.35
2022-12-06T12:43:34.313Z,4.97
2022-12-06T12:47:19.615Z,4.93
2022-12-06T12:51:05.227Z,6.45
2022-12-06T12:55:19.091Z,3.97
2022-12-06T12:59:05.406Z,6.05
2022-12-06T13:03:03.391Z,16.00
2022-12-06T13:07:17.524Z,6.93
2022-12-06T13:11:03.177Z,6.97
2022-12-06T13:14:52.522Z,5.85
2022-12-06T13:18:44.854Z,3.38
2022-12-06T13:22:30.688Z,5.30
2022-12-06T13:26:21.184Z,3.45
2022-12-06T13:30:18.902Z,3.70
2022-12-06T13:34:06.618Z,3.70
2022-12-06T13:38:03.308Z,4.80
2022-12-06T13:42:12.697Z,4.25
2022-12-06T13:46:09.489Z,4.05
2022-12-06T13:49:51.302Z,5.57
2022-12-06T13:53:34.096Z,3.30
2022-12-06T13:57:23.866Z,2.97
2022-12-06T14:01:40.958Z,5.30
2022-12-06T14:09:46.730Z,4.38
2022-12-06T14:13:28.474Z,4.00
2022-12-06T14:17:32.114Z,5.95
2022-12-06T14:21:27.573Z,2.63
2022-12-06T14:25:25.369Z,4.07
2022-12-06T14:29:22.391Z,7.30
2022-12-06T14:33:22.052Z,6.38
2022-12-06T14:37:18.741Z,4.28
2022-12-06T14:41:19.199Z,6.25
2022-12-06T14:45:02.614Z,5.75
2022-12-06T14:49:03.847Z,4.50
2022-12-06T14:53:16.331Z,4.07
2022-12-06T14:56:58.643Z,4.07
2022-12-06T15:00:54.643Z,6.78
2022-12-06T15:04:40.027Z,4.65
2022-12-06T15:08:27.868Z,5.55
2022-12-06T15:12:45.312Z,4.88
2022-12-06T15:16:27.183Z,3.75
2022-12-06T15:20:17.950Z,5.78
2022-12-06T15:23:59.699Z,4.18
2022-12-06T15:27:41.518Z,3.10
2022-12-06T15:31:28.630Z,3.67
2022-12-06T15:35:18.294Z,7.15
2022-12-06T15:39:00.063Z,3.78
2022-12-06T15:42:41.869Z,4.63
2022-12-06T15:46:26.018Z,4.03
2022-12-06T15:50:08.425Z,5.28
2022-12-06T15:53:50.704Z,4.60
2022-12-06T15:57:32.518Z,4.47
2022-12-06T16:01:28.880Z,5.70
2022-12-06T16:05:16.259Z,4.00
2022-12-06T16:12:58.558Z,5.97
2022-12-06T16:16:43.544Z,9.65
2022-12-06T16:20:31.509Z,7.47
2022-12-06T16:24:14.632Z,7.57
2022-12-06T16:27:56.787Z,7.97
2022-12-06T16:31:41.024Z,5.80
2022-12-06T16:35:22.946Z,7.00
2022-12-06T16:39:05.563Z,5.43
2022-12-06T16:42:47.415Z,5.10
2022-12-06T16:46:34.301Z,4.35
2022-12-06T16:50:24.261Z,5.68
2022-12-06T16:54:06.436Z,10.13
2022-12-06T16:57:48.149Z,6.18
2022-12-06T17:01:32.323Z,6.68
2022-12-06T17:05:18.919Z,6.63
2022-12-06T17:09:00.720Z,7.60
2022-12-06T17:12:43.503Z,7.65
2022-12-06T17:16:25.355Z,6.43
2022-12-06T17:20:08.589Z,7.25
2022-12-06T17:23:50.447Z,6.43
2022-12-06T17:27:33.058Z,8.63
2022-12-06T17:31:14.816Z,8.52
2022-12-06T17:34:56.601Z,6.55
2022-12-06T17:38:38.961Z,7.80
2022-12-06T17:42:39.133Z,5.18
2022-12-06T17:46:20.950Z,8.55
2022-12-06T17:50:04.437Z,7.15
2022-12-06T17:53:46.469Z,8.18
2022-12-06T17:57:28.318Z,7.32
2022-12-06T18:01:10.096Z,9.15
2022-12-06T18:04:53.842Z,7.35
2022-12-06T18:08:35.755Z,9.68
2022-12-06T18:12:17.649Z,10.93
2022-12-06T18:15:59.382Z,10.32
2022-12-06T18:19:41.286Z,10.48
2022-12-06T18:23:23.065Z,10.70
2022-12-06T18:27:06.099Z,9.10
2022-12-06T18:30:47.846Z,9.63
2022-12-06T18:34:29.659Z,10.50
2022-12-06T18:38:11.391Z,8.68
2022-12-06T18:41:54.388Z,19.73
2022-12-06T18:45:36.224Z,7.68
2022-12-06T18:49:18.719Z,11.02
2022-12-06T18:53:01.542Z,9.93
2022-12-06T18:56:43.398Z,12.48
2022-12-06T19:00:25.171Z,11.23
2022-12-06T19:04:09.255Z,11.70
2022-12-06T19:07:51.063Z,10.55
2022-12-06T19:11:36.569Z,10.90
2022-12-06T19:15:18.538Z,15.85
2022-12-06T19:19:02.422Z,11.15
2022-12-06T19:22:44.333Z,10.65
2022-12-06T19:26:27.665Z,11.05
2022-12-06T19:30:10.048Z,11.98
2022-12-06T19:33:52.654Z,11.30
2022-12-06T19:37:34.442Z,14.68
2022-12-06T19:41:18.160Z,10.93
2022-12-06T19:44:59.951Z,15.68
2022-12-06T19:48:42.044Z,15.13
2022-12-06T19:52:27.893Z,11.10
2022-12-06T19:56:16.196Z,12.85
2022-12-06T19:59:58.061Z,10.88
2022-12-06T20:03:39.895Z,11.82
2022-12-06T20:07:21.976Z,11.10
2022-12-06T20:11:06.159Z,13.15
2022-12-06T20:14:49.172Z,11.18
2022-12-06T20:18:32.129Z,10.80
2022-12-06T20:22:15.338Z,13.23
2022-12-06T20:25:57.646Z,9.90
2022-12-06T20:29:40.169Z,10.55
2022-12-06T20:33:22.803Z,12.27
2022-12-06T20:37:06.317Z,10.88
2022-12-06T20:40:48.050Z,11.98
2022-12-06T20:44:30.062Z,12.00
2022-12-06T20:48:11.840Z,12.13
2022-12-06T20:51:53.974Z,15.27
2022-12-06T20:55:35.763Z,12.70
2022-12-06T20:59:17.597Z,12.65
2022-12-06T21:02:59.419Z,12.73
2022-12-06T21:06:41.831Z,13.60
2022-12-06T21:10:23.568Z,12.00
2022-12-06T21:14:06.126Z,10.13
2022-12-06T21:17:47.898Z,12.10
2022-12-06T21:21:38.696Z,9.88
2022-12-06T21:25:20.706Z,10.15
2022-12-06T21:29:03.450Z,9.48
2022-12-06T21:32:45.197Z,13.98
2022-12-06T21:36:27.617Z,16.00
2022-12-06T21:40:09.789Z,11.95
2022-12-06T21:43:51.797Z,13.70
2022-12-06T21:47:33.550Z,12.60
2022-12-06T21:51:15.478Z,15.43
2022-12-06T21:54:57.256Z,15.77
2022-12-06T21:58:39.108Z,15.07
2022-12-06T22:02:20.917Z,12.32
2022-12-06T22:06:11.080Z,14.48
2022-12-06T22:09:52.871Z,16.30
2022-12-06T22:13:37.669Z,19.50
2022-12-06T22:17:19.497Z,13.15
2022-12-06T22:21:04.378Z,18.38
2022-12-06T22:24:46.221Z,20.05
2022-12-06T22:28:27.913Z,20.13
2022-12-06T22:32:09.681Z,20.77
2022-12-06T22:35:51.436Z,19.45
2022-12-06T22:39:33.157Z,18.17
2022-12-06T22:43:14.914Z,18.75
2022-12-06T22:46:56.689Z,17.00
2022-12-06T22:50:38.443Z,19.17
2022-12-06T22:54:20.203Z,19.55
2022-12-06T22:58:01.977Z,17.40
2022-12-06T23:01:44.512Z,17.23
2022-12-06T23:05:26.275Z,14.75
2022-12-06T23:09:08.749Z,20.02
2022-12-06T23:12:50.568Z,18.63
2022-12-06T23:16:32.962Z,16.65
2022-12-06T23:20:14.938Z,24.25
2022-12-06T23:24:02.307Z,18.02
2022-12-06T23:31:28.272Z,20.73
2022-12-06T23:35:10.150Z,17.38
2022-12-06T23:38:52.832Z,21.15
2022-12-06T23:42:34.564Z,15.25
2022-12-06T23:46:22.170Z,19.15
2022-12-06T23:50:04.595Z,18.73
2022-12-06T23:53:53.290Z,16.90
2022-12-06T23:57:35.005Z,19.60
